Time;durP1;ratioP1;P1;durP2;ratioP2;P2;SDS_P1;SDS_P2;PMS_P1;PMS_P2;Temp;Humidity;BMP_temperature;BMP_pressure;BME280_temperature;BME280_humidity;BME280_pressure;Samples;Min_cycle;Max_cycle;Signal;HPM_P1;HPM_P2
2023/05/17 00:01:26;;;;;;;7.90;4.70;;;;;;;15.51;57.79;99405.75;107065;1260;74973;-39
2023/05/17 00:03:55;;;;;;;7.70;4.80;;;;;;;15.51;57.81;99405.20;107045;1261;61923;-39
2023/05/17 00:06:22;;;;;;;9.70;4.90;;;;;;;15.51;57.81;99409.17;107135;1262;60277;-39
2023/05/17 00:08:49;;;;;;;10.10;4.60;;;;;;;15.50;57.80;99408.70;107009;1260;74781;-40
2023/05/17 00:11:17;;;;;;;7.50;4.90;;;;;;;15.49;57.91;99412.22;107139;1260;70393;-40
2023/05/17 00:13:44;;;;;;;15.50;5.00;;;;;;;15.49;57.99;99412.91;107018;1261;73651;-39
2023/05/17 00:16:11;;;;;;;10.00;5.30;;;;;;;15.48;58.07;99415.18;107032;1265;60720;-40
2023/05/17 00:18:39;;;;;;;8.70;4.90;;;;;;;15.47;58.13;99413.93;106976;1260;61882;-39
2023/05/17 00:21:06;;;;;;;8.30;4.90;;;;;;;15.46;58.12;99417.75;107016;1265;76342;-39
2023/05/17 00:23:33;;;;;;;6.90;4.70;;;;;;;15.45;58.02;99418.45;107016;1259;69516;-39
2023/05/17 00:26:01;;;;;;;8.00;4.60;;;;;;;15.45;58.14;99422.27;107015;1263;74560;-40
2023/05/17 00:28:28;;;;;;;7.70;4.80;;;;;;;15.44;58.05;99421.50;106959;1258;60127;-39
2023/05/17 00:30:56;;;;;;;7.30;4.50;;;;;;;15.44;58.04;99420.39;107107;1260;60328;-39
2023/05/17 00:33:23;;;;;;;7.30;4.50;;;;;;;15.45;58.04;99420.33;106988;1259;76226;-39
2023/05/17 00:35:50;;;;;;;7.10;4.60;;;;;;;15.46;58.10;99420.55;106971;1260;69828;-39
2023/05/17 00:38:18;;;;;;;7.10;5.00;;;;;;;15.48;57.95;99423.91;107055;1260;72610;-39
2023/05/17 00:40:45;;;;;;;10.30;4.80;;;;;;;15.48;58.13;99430.71;107113;1260;61371;-39
2023/05/17 00:43:12;;;;;;;8.80;4.70;;;;;;;15.49;59.95;99429.54;106981;1261;60637;-40
2023/05/17 00:45:39;;;;;;;12.70;4.10;;;;;;;15.53;59.58;99429.17;107028;1260;74981;-39
2023/05/17 00:48:07;;;;;;;9.10;4.80;;;;;;;15.59;58.83;99432.38;107026;1261;69370;-39
2023/05/17 00:50:35;;;;;;;8.20;4.80;;;;;;;15.62;58.44;99428.16;107045;1263;74728;-39
2023/05/17 00:53:02;;;;;;;8.10;4.40;;;;;;;15.66;58.44;99431.67;107031;1261;61584;-40
2023/05/17 00:55:30;;;;;;;10.50;5.30;;;;;;;15.69;58.27;99431.05;107110;1263;62607;-39
2023/05/17 00:57:57;;;;;;;6.70;4.80;;;;;;;15.72;58.19;99429.55;107091;1261;73615;-39
2023/05/17 01:00:24;;;;;;;8.80;4.80;;;;;;;15.74;58.10;99427.06;107015;1260;70229;-39
2023/05/17 01:02:52;;;;;;;9.40;4.90;;;;;;;15.76;58.07;99425.80;107032;1260;73978;-39
2023/05/17 01:05:19;;;;;;;8.50;4.80;;;;;;;15.76;58.09;99427.91;107054;1261;62302;-40
2023/05/17 01:07:47;;;;;;;9.30;4.90;;;;;;;15.74;58.09;99424.70;107061;1258;62608;-39
2023/05/17 01:10:14;;;;;;;7.60;5.00;;;;;;;15.73;58.24;99423.70;107058;1258;75246;-39
2023/05/17 01:13:23;;;;;;;7.30;4.80;;;;;;;15.72;58.26;99430.35;107068;1263;68451;-40
2023/05/17 01:15:59;;;;;;;9.50;4.60;;;;;;;15.70;58.33;99426.52;106724;1266;71493;-39
2023/05/17 01:18:47;;;;;;;11.60;5.10;;;;;;;15.67;58.47;99424.02;107004;1263;62714;-39
2023/05/17 01:21:34;;;;;;;8.40;4.60;;;;;;;15.64;58.70;99424.56;106980;1259;60827;-39
2023/05/17 01:24:08;;;;;;;13.80;4.60;;;;;;;15.64;59.11;99426.76;106990;1261;74250;-39
2023/05/17 01:26:39;;;;;;;9.70;4.60;;;;;;;15.62;59.07;99428.32;107004;1265;70272;-39
2023/05/17 01:29:07;;;;;;;9.50;3.90;;;;;;;15.63;59.08;99422.69;107083;1259;73973;-39
2023/05/17 01:31:35;;;;;;;12.90;4.30;;;;;;;15.68;59.16;99425.19;107014;1263;62925;-39
2023/05/17 01:34:07;;;;;;;9.20;4.30;;;;;;;15.75;59.16;99422.77;107152;1263;62096;-39
2023/05/17 01:36:34;;;;;;;8.60;4.70;;;;;;;15.81;59.04;99422.13;107591;1259;75861;-39
2023/05/17 01:39:02;;;;;;;9.40;4.50;;;;;;;15.85;58.85;99420.55;107075;1264;69329;-39
2023/05/17 01:41:33;;;;;;;7.50;4.00;;;;;;;15.90;58.43;99420.02;107008;1264;73851;-39
2023/05/17 01:44:07;;;;;;;8.10;4.20;;;;;;;15.93;58.16;99417.27;107037;1260;60892;-39
2023/05/17 01:46:40;;;;;;;10.90;5.10;;;;;;;15.95;58.15;99417.58;107056;1261;62726;-39
2023/05/17 01:49:15;;;;;;;7.90;4.50;;;;;;;15.95;57.92;99415.46;107017;1263;75955;-39
2023/05/17 01:52:08;;;;;;;7.80;4.80;;;;;;;15.95;57.93;99415.31;107104;1263;69672;-39
2023/05/17 01:54:59;;;;;;;8.10;4.80;;;;;;;15.94;58.02;99416.80;107038;1260;74978;-40
2023/05/17 01:57:28;;;;;;;9.50;4.60;;;;;;;15.90;58.04;99412.36;107036;1264;61553;-39
2023/05/17 02:02:28;;;;;;;9.70;4.90;;;;;;;15.79;58.26;99417.67;104161;1292;601255;-39
2023/05/17 02:04:57;;;;;;;12.70;5.20;;;;;;;15.75;58.37;99417.77;106590;1267;59708;-39
2023/05/17 02:07:25;;;;;;;11.20;4.60;;;;;;;15.72;58.41;99423.94;106575;1267;60535;-40
2023/05/17 02:09:54;;;;;;;7.50;5.00;;;;;;;15.68;58.46;99420.28;106627;1267;74747;-38
2023/05/17 02:12:22;;;;;;;10.00;4.90;;;;;;;15.62;58.70;99419.27;106530;1267;68304;-39
2023/05/17 02:14:50;;;;;;;8.40;5.10;;;;;;;15.58;58.91;99423.48;106531;1272;74063;-39
2023/05/17 02:17:18;;;;;;;9.60;4.70;;;;;;;15.56;59.04;99420.11;106460;1263;59329;-39
2023/05/17 02:19:45;;;;;;;12.90;4.80;;;;;;;15.53;59.16;99420.29;106657;1264;61122;-39
2023/05/17 02:22:12;;;;;;;8.60;4.80;;;;;;;15.54;59.23;99422.16;106787;1263;74249;-39
2023/05/17 02:24:39;;;;;;;7.90;4.50;;;;;;;15.57;59.27;99423.16;106767;1263;69367;-39
2023/05/17 02:27:07;;;;;;;12.50;4.50;;;;;;;15.58;59.34;99423.00;106752;1263;74863;-39
2023/05/17 02:29:34;;;;;;;7.50;4.80;;;;;;;15.61;59.30;99423.08;106890;1263;62532;-40
2023/05/17 02:32:02;;;;;;;7.80;4.60;;;;;;;15.64;59.21;99424.34;106926;1264;61166;-40
2023/05/17 02:34:29;;;;;;;9.30;4.80;;;;;;;15.66;59.17;99425.34;106889;1264;74250;-38
2023/05/17 02:36:58;;;;;;;10.70;4.80;;;;;;;15.65;59.05;99425.90;106817;1263;70179;-39
2023/05/17 02:39:25;;;;;;;8.10;5.00;;;;;;;15.64;59.06;99427.46;106803;1268;73738;-39
2023/05/17 02:41:52;;;;;;;8.40;4.90;;;;;;;15.63;58.99;99429.23;106793;1263;62286;-39
2023/05/17 02:44:20;;;;;;;9.00;5.20;;;;;;;15.61;58.89;99428.40;106796;1263;61435;-39
2023/05/17 02:46:47;;;;;;;7.90;4.50;;;;;;;15.59;58.83;99432.91;106706;1266;75323;-39
2023/05/17 02:49:14;;;;;;;10.10;4.80;;;;;;;15.57;58.92;99434.95;106725;1264;68127;-39
2023/05/17 02:51:41;;;;;;;9.40;5.00;;;;;;;15.55;58.85;99433.62;106760;1263;75063;-38
2023/05/17 02:54:09;;;;;;;9.70;4.70;;;;;;;15.55;58.87;99434.41;106763;1264;64090;-39
2023/05/17 02:56:36;;;;;;;12.60;4.80;;;;;;;15.52;58.89;99437.92;106707;1263;62241;-39
2023/05/17 02:59:03;;;;;;;7.40;4.60;;;;;;;15.50;59.06;99441.64;106616;1264;74293;-40
2023/05/17 03:01:32;;;;;;;8.00;4.90;;;;;;;15.47;59.08;99444.06;106750;1263;68774;-40
2023/05/17 03:03:59;;;;;;;8.20;4.60;;;;;;;15.47;59.15;99450.77;106735;1264;74874;-40
2023/05/17 03:06:28;;;;;;;7.80;4.30;;;;;;;15.50;59.12;99455.47;106847;1263;61669;-40
2023/05/17 03:08:55;;;;;;;7.00;4.40;;;;;;;15.56;59.08;99452.28;106781;1263;62561;-40
2023/05/17 03:11:22;;;;;;;7.80;4.50;;;;;;;15.61;58.87;99460.35;106752;1266;71834;-40
2023/05/17 03:13:50;;;;;;;9.70;4.30;;;;;;;15.66;58.72;99458.31;106742;1263;66423;-40
2023/05/17 03:16:21;;;;;;;8.20;4.50;;;;;;;15.70;58.46;99457.98;106609;1263;73797;-40
2023/05/17 03:18:49;;;;;;;10.80;4.90;;;;;;;15.73;58.35;99458.14;106708;1267;61261;-40
2023/05/17 03:21:19;;;;;;;10.20;4.30;;;;;;;15.77;58.16;99457.27;106851;1263;60123;-40
2023/05/17 03:23:47;;;;;;;7.70;4.70;;;;;;;15.79;57.93;99463.45;106825;1263;73267;-40
2023/05/17 03:26:15;;;;;;;10.80;4.70;;;;;;;15.80;58.14;99463.84;106724;1264;69405;-40
2023/05/17 03:28:46;;;;;;;5.30;3.90;;;;;;;15.82;57.92;99464.86;106766;1267;72284;-40
2023/05/17 03:31:14;;;;;;;9.10;4.30;;;;;;;15.83;57.64;99466.73;106834;1265;60534;-40
2023/05/17 03:33:42;;;;;;;7.70;4.80;;;;;;;15.85;57.72;99462.11;106635;1263;62730;-40
2023/05/17 03:36:09;;;;;;;7.40;4.20;;;;;;;15.85;57.73;99464.23;106792;1269;75017;-40
2023/05/17 03:38:37;;;;;;;6.10;4.20;;;;;;;15.87;57.82;99468.75;106728;1263;67451;-40
2023/05/17 03:41:04;;;;;;;8.80;3.90;;;;;;;15.86;57.91;99468.77;106728;1263;73378;-40
2023/05/17 03:43:34;;;;;;;7.30;4.50;;;;;;;15.87;57.68;99467.51;106723;1264;62196;-40
2023/05/17 03:46:02;;;;;;;5.90;4.30;;;;;;;15.87;57.82;99469.15;106645;1263;59616;-40
2023/05/17 03:48:29;;;;;;;7.40;3.90;;;;;;;15.87;57.84;99465.95;106655;1269;74195;-40
2023/05/17 03:50:59;;;;;;;7.70;4.00;;;;;;;15.86;57.92;99472.13;106764;1263;67088;-40
2023/05/17 03:53:27;;;;;;;10.30;4.30;;;;;;;15.86;57.87;99473.36;106713;1264;73692;-40
2023/05/17 03:55:54;;;;;;;7.40;4.30;;;;;;;15.85;57.87;99475.71;106726;1265;60773;-40
2023/05/17 03:58:22;;;;;;;8.30;4.00;;;;;;;15.86;57.88;99478.98;106833;1264;59556;-40
2023/05/17 04:00:49;;;;;;;6.60;4.40;;;;;;;15.85;57.64;99476.96;106728;1269;75061;-40
2023/05/17 04:03:17;;;;;;;6.10;4.00;;;;;;;15.86;57.78;99481.10;106815;1263;68263;-40
2023/05/17 04:05:46;;;;;;;6.80;4.50;;;;;;;15.87;57.84;99486.09;106772;1267;73580;-40
2023/05/17 04:08:14;;;;;;;7.70;4.30;;;;;;;15.88;58.06;99488.28;106738;1263;61994;-40
2023/05/17 04:10:42;;;;;;;8.50;4.20;;;;;;;15.88;58.04;99495.23;106745;1263;59962;-40
2023/05/17 04:13:09;;;;;;;8.40;4.10;;;;;;;15.89;58.13;99492.89;106798;1263;74010;-40
2023/05/17 04:15:37;;;;;;;9.20;4.80;;;;;;;15.90;57.94;99494.29;106872;1263;68541;-40
2023/05/17 04:18:05;;;;;;;10.50;4.30;;;;;;;15.91;57.94;99495.00;106820;1264;72862;-40
2023/05/17 04:20:33;;;;;;;9.10;4.20;;;;;;;15.93;57.92;99500.55;106805;1263;62671;-40
2023/05/17 04:23:00;;;;;;;9.40;4.00;;;;;;;15.95;57.78;99502.89;106805;1263;59853;-40
2023/05/17 04:25:29;;;;;;;13.40;4.50;;;;;;;15.95;57.80;99503.98;106852;1263;73081;-40
2023/05/17 04:27:56;;;;;;;8.10;4.30;;;;;;;15.96;57.92;99508.13;106738;1263;69197;-39
2023/05/17 04:30:24;;;;;;;10.10;4.60;;;;;;;15.97;58.00;99510.39;106810;1263;72933;-40
2023/05/17 04:32:52;;;;;;;7.00;4.30;;;;;;;15.98;58.25;99511.41;106707;1263;61717;-40
2023/05/17 04:35:19;;;;;;;11.70;4.70;;;;;;;16.05;58.15;99515.84;106739;1263;61958;-40
2023/05/17 04:37:48;;;;;;;9.90;4.60;;;;;;;16.12;58.10;99519.52;106739;1263;73217;-40
2023/05/17 04:40:20;;;;;;;8.10;4.40;;;;;;;16.18;57.98;99520.23;106751;1263;67899;-40
2023/05/17 04:42:47;;;;;;;7.60;4.30;;;;;;;16.23;57.85;99522.01;106813;1268;71890;-40
2023/05/17 04:45:16;;;;;;;6.60;4.30;;;;;;;16.27;57.69;99527.48;106831;1267;59624;-40
2023/05/17 04:47:44;;;;;;;5.50;3.90;;;;;;;16.32;57.72;99526.59;106806;1263;61096;-40
2023/05/17 04:50:13;;;;;;;4.70;3.60;;;;;;;16.36;57.67;99533.78;106693;1263;75088;-40
2023/05/17 04:52:40;;;;;;;6.90;4.10;;;;;;;16.41;57.57;99539.88;106875;1264;69079;-40
2023/05/17 04:55:08;;;;;;;5.70;4.20;;;;;;;16.45;57.66;99544.56;106821;1267;72024;-40
2023/05/17 04:57:36;;;;;;;7.10;4.20;;;;;;;16.50;57.08;99546.59;106764;1267;61292;-40
2023/05/17 05:00:05;;;;;;;6.30;3.90;;;;;;;16.54;57.11;99550.33;106847;1263;59694;-41
2023/05/17 05:02:35;;;;;;;6.30;4.00;;;;;;;16.56;57.11;99546.42;106796;1264;73190;-40
2023/05/17 05:05:06;;;;;;;5.10;3.80;;;;;;;16.59;57.31;99544.16;106789;1263;68640;-39
2023/05/17 05:07:34;;;;;;;7.50;4.20;;;;;;;16.61;57.30;99543.14;106749;1264;74983;-40
2023/05/17 05:10:03;;;;;;;5.40;3.70;;;;;;;16.62;57.23;99542.76;106788;1263;60287;-40
2023/05/17 05:12:30;;;;;;;8.10;4.30;;;;;;;16.64;57.18;99541.19;106874;1264;60646;-40
2023/05/17 05:14:58;;;;;;;7.60;4.00;;;;;;;16.64;57.12;99536.27;106862;1263;71797;-39
2023/05/17 05:17:29;;;;;;;7.90;4.40;;;;;;;16.66;56.99;99534.06;106794;1263;70056;-40
2023/05/17 05:19:56;;;;;;;11.40;4.40;;;;;;;16.68;56.85;99538.59;106793;1263;74590;-39
2023/05/17 05:22:25;;;;;;;5.80;3.70;;;;;;;16.69;56.93;99538.20;106858;1266;60489;-40
2023/05/17 05:24:52;;;;;;;6.70;4.20;;;;;;;16.71;56.59;99541.33;106883;1269;59707;-38
2023/05/17 05:27:20;;;;;;;10.10;4.40;;;;;;;16.75;56.69;99540.52;106633;1263;75336;-39
2023/05/17 05:29:47;;;;;;;7.80;3.80;;;;;;;16.78;56.56;99541.45;106637;1263;70332;-39
2023/05/17 05:32:15;;;;;;;7.10;4.30;;;;;;;16.81;56.36;99541.98;106612;1266;73241;-39
2023/05/17 05:34:44;;;;;;;8.00;4.00;;;;;;;16.86;56.25;99544.32;106599;1266;61093;-39
2023/05/17 05:37:12;;;;;;;8.60;4.20;;;;;;;16.88;55.95;99546.11;106750;1260;61753;-39
2023/05/17 05:39:40;;;;;;;8.90;4.10;;;;;;;16.89;55.85;99547.75;106828;1260;74516;-39
2023/05/17 05:42:07;;;;;;;6.00;4.00;;;;;;;16.92;55.75;99552.50;107016;1260;67900;-39
2023/05/17 05:44:35;;;;;;;7.50;3.90;;;;;;;16.95;55.59;99556.02;106915;1260;73724;-38
2023/05/17 05:47:02;;;;;;;9.40;4.30;;;;;;;16.99;55.44;99555.23;107086;1258;61937;-38
2023/05/17 05:49:32;;;;;;;5.30;3.70;;;;;;;17.04;55.47;99562.64;107284;1256;61851;-38
2023/05/17 05:51:59;;;;;;;10.00;4.30;;;;;;;17.08;55.02;99566.23;107247;1257;75157;-39
2023/05/17 05:54:28;;;;;;;7.00;4.00;;;;;;;17.13;54.85;99565.56;107286;1257;68858;-39
2023/05/17 05:56:58;;;;;;;9.50;4.10;;;;;;;17.19;54.77;99565.16;107256;1257;73745;-38
2023/05/17 05:59:26;;;;;;;7.30;4.20;;;;;;;17.24;54.65;99567.24;107271;1263;60907;-39
2023/05/17 06:01:56;;;;;;;5.80;3.70;;;;;;;17.28;54.85;99568.48;107282;1257;60026;-39
2023/05/17 06:04:24;;;;;;;7.00;3.70;;;;;;;17.34;54.62;99570.96;107282;1256;74251;-39
2023/05/17 06:07:06;;;;;;;7.50;4.00;;;;;;;17.41;54.39;99574.67;107260;1257;70345;-38
2023/05/17 06:09:34;;;;;;;7.50;3.70;;;;;;;17.47;54.07;99573.95;107244;1257;73908;-38
2023/05/17 06:12:01;;;;;;;5.70;4.30;;;;;;;17.53;54.28;99577.83;107246;1257;62620;-39
2023/05/17 06:14:28;;;;;;;7.60;4.30;;;;;;;17.60;54.05;99576.79;107148;1257;61012;-39
2023/05/17 06:16:55;;;;;;;8.50;3.90;;;;;;;17.68;53.70;99579.41;107141;1257;73977;-39
2023/05/17 06:19:23;;;;;;;7.00;3.80;;;;;;;17.75;53.52;99580.30;107152;1257;68924;-39
2023/05/17 06:21:50;;;;;;;8.30;4.20;;;;;;;17.82;53.69;99582.30;107244;1257;74542;-39
2023/05/17 06:24:18;;;;;;;9.40;4.10;;;;;;;17.90;53.38;99584.90;107192;1257;62616;-39
2023/05/17 06:26:46;;;;;;;5.70;3.70;;;;;;;17.98;53.20;99588.14;107211;1257;60614;-39
2023/05/17 06:29:13;;;;;;;8.60;4.10;;;;;;;18.06;52.86;99587.60;107126;1257;75222;-39
2023/05/17 06:31:40;;;;;;;8.80;3.90;;;;;;;18.14;52.72;99589.02;107243;1258;70192;-39
2023/05/17 06:34:07;;;;;;;8.70;3.80;;;;;;;18.21;52.50;99591.25;107196;1257;74973;-39
2023/05/17 06:36:35;;;;;;;7.80;3.90;;;;;;;18.28;52.21;99589.45;107314;1256;62048;-39
2023/05/17 06:39:04;;;;;;;6.80;3.90;;;;;;;18.35;51.50;99589.55;107287;1257;61734;-38
2023/05/17 06:41:33;;;;;;;5.30;3.90;;;;;;;18.41;51.32;99593.42;107310;1257;73495;-38
2023/05/17 06:44:01;;;;;;;6.20;3.80;;;;;;;18.49;51.56;99590.52;107247;1258;69317;-39
2023/05/17 06:46:28;;;;;;;7.80;3.80;;;;;;;18.59;51.84;99589.27;107278;1257;74110;-38
2023/05/17 06:48:55;;;;;;;7.60;3.80;;;;;;;18.71;50.94;99590.02;107161;1258;61786;-39
2023/05/17 06:51:23;;;;;;;6.20;3.60;;;;;;;18.81;50.36;99590.61;107225;1257;61900;-39
2023/05/17 06:53:50;;;;;;;7.50;3.80;;;;;;;18.91;49.75;99589.41;107177;1257;73399;-39
2023/05/17 06:56:18;;;;;;;9.20;3.70;;;;;;;19.00;49.51;99592.21;107042;1259;69313;-39
2023/05/17 06:58:45;;;;;;;6.50;3.70;;;;;;;19.11;49.34;99595.85;107068;1259;71492;-40
2023/05/17 07:01:12;;;;;;;7.50;3.50;;;;;;;19.22;48.96;99593.05;107091;1257;62556;-38
2023/05/17 07:03:43;;;;;;;5.60;3.20;;;;;;;19.30;48.03;99595.14;107106;1258;62371;-39
2023/05/17 07:06:10;;;;;;;6.60;3.40;;;;;;;19.37;46.87;99591.36;107228;1257;76000;-38
2023/05/17 07:08:39;;;;;;;6.00;3.00;;;;;;;19.43;47.34;99593.42;107161;1257;69456;-39
2023/05/17 07:11:06;;;;;;;6.70;3.00;;;;;;;19.51;47.17;99596.95;107183;1257;75011;-39
2023/05/17 07:13:34;;;;;;;5.00;3.10;;;;;;;19.61;46.96;99598.62;107210;1257;61348;-39
2023/05/17 07:16:02;;;;;;;4.90;2.90;;;;;;;19.71;46.06;99602.00;107213;1257;61920;-39
2023/05/17 07:18:29;;;;;;;5.60;3.10;;;;;;;19.78;45.43;99599.54;107204;1257;76171;-39
2023/05/17 07:20:57;;;;;;;6.10;3.10;;;;;;;19.82;46.12;99598.63;107255;1257;69440;-38
2023/05/17 07:23:24;;;;;;;4.60;3.00;;;;;;;19.91;46.57;99602.34;107196;1259;74185;-39
2023/05/17 07:25:52;;;;;;;6.30;2.80;;;;;;;20.01;45.67;99608.71;107215;1257;62571;-39
2023/05/17 07:28:19;;;;;;;5.00;3.10;;;;;;;20.10;45.86;99604.25;107202;1257;60543;-39
2023/05/17 07:30:46;;;;;;;5.60;3.00;;;;;;;20.21;46.05;99607.14;107193;1257;75103;-38
2023/05/17 07:33:13;;;;;;;12.40;3.50;;;;;;;20.34;45.32;99614.48;107168;1257;70249;-39
2023/05/17 07:35:41;;;;;;;7.10;3.70;;;;;;;20.46;44.14;99612.50;107184;1257;73069;-39
2023/05/17 07:38:09;;;;;;;12.60;3.10;;;;;;;20.53;43.75;99612.45;107265;1259;60450;-39
2023/05/17 07:40:36;;;;;;;8.60;3.20;;;;;;;20.59;44.21;99615.57;107253;1257;61061;-39
2023/05/17 07:43:04;;;;;;;7.50;2.80;;;;;;;20.66;42.69;99617.80;107220;1257;74767;-39
2023/05/17 07:45:31;;;;;;;6.20;2.80;;;;;;;20.67;42.84;99616.84;107031;1263;70057;-39
2023/05/17 07:47:59;;;;;;;4.70;2.90;;;;;;;20.69;42.73;99619.81;107050;1257;74587;-39
2023/05/17 07:50:27;;;;;;;6.40;3.00;;;;;;;20.71;42.79;99621.49;107230;1257;61421;-39
2023/05/17 07:52:55;;;;;;;3.30;2.60;;;;;;;20.73;42.41;99621.46;107174;1257;61659;-39
2023/05/17 07:55:22;;;;;;;4.20;2.90;;;;;;;20.77;42.20;99622.34;107132;1257;76023;-39
2023/05/17 07:57:51;;;;;;;9.80;3.20;;;;;;;20.82;41.80;99621.21;107206;1257;69636;-39
2023/05/17 08:00:19;;;;;;;4.40;2.60;;;;;;;20.86;41.29;99621.14;107195;1257;74973;-39
2023/05/17 08:02:46;;;;;;;6.60;3.10;;;;;;;20.89;41.83;99621.39;107103;1257;60424;-39
2023/05/17 08:05:13;;;;;;;4.20;2.90;;;;;;;20.94;41.75;99617.84;107208;1257;62621;-39
2023/05/17 08:07:40;;;;;;;6.20;2.90;;;;;;;21.00;40.84;99616.92;107230;1257;75555;-39
2023/05/17 08:10:08;;;;;;;6.90;3.00;;;;;;;21.03;40.52;99620.27;107212;1257;69049;-40
2023/05/17 08:12:35;;;;;;;5.30;3.00;;;;;;;21.02;40.83;99619.01;107228;1257;72061;-39
2023/05/17 08:15:03;;;;;;;6.40;3.10;;;;;;;21.04;40.86;99622.20;107240;1260;62713;-39
2023/05/17 08:17:31;;;;;;;6.40;3.10;;;;;;;21.07;40.35;99620.98;107392;1257;60276;-39
2023/05/17 08:19:58;;;;;;;9.80;3.30;;;;;;;21.09;40.80;99622.34;107301;1257;75572;-39
2023/05/17 08:22:26;;;;;;;4.50;2.80;;;;;;;21.14;40.93;99623.45;107259;1256;69087;-39
2023/05/17 08:24:53;;;;;;;7.40;3.60;;;;;;;21.19;40.17;99621.48;107264;1261;74687;-39
2023/05/17 08:27:21;;;;;;;6.90;3.10;;;;;;;21.23;40.44;99622.66;107278;1257;61980;-40
2023/05/17 08:29:50;;;;;;;6.70;2.80;;;;;;;21.31;40.62;99627.45;107304;1257;61233;-39
2023/05/17 08:32:17;;;;;;;5.10;2.70;;;;;;;21.42;40.18;99632.67;107293;1256;75843;-39
2023/05/17 08:34:46;;;;;;;3.60;2.60;;;;;;;21.49;40.03;99633.38;107257;1257;68197;-39
2023/05/17 08:37:13;;;;;;;7.20;3.10;;;;;;;21.55;40.09;99631.21;107262;1257;74363;-39
2023/05/17 08:39:41;;;;;;;5.50;2.80;;;;;;;21.60;39.86;99632.20;107304;1258;60887;-39
2023/05/17 08:42:08;;;;;;;5.10;2.40;;;;;;;21.59;39.74;99627.81;107251;1258;62246;-39
2023/05/17 08:44:37;;;;;;;7.90;2.90;;;;;;;21.67;39.80;99631.97;107245;1257;75304;-39
2023/05/17 08:47:05;;;;;;;4.10;2.80;;;;;;;21.75;39.93;99628.56;107296;1257;70213;-40
2023/05/17 08:49:33;;;;;;;6.20;2.70;;;;;;;21.83;39.72;99628.07;107254;1257;73386;-39
2023/05/17 08:52:00;;;;;;;5.80;2.60;;;;;;;21.93;39.21;99625.89;107175;1263;60558;-39
2023/05/17 08:54:27;;;;;;;5.40;2.80;;;;;;;22.00;38.83;99627.94;107227;1256;62517;-39
2023/05/17 08:56:59;;;;;;;4.00;2.50;;;;;;;22.06;38.62;99628.97;107279;1259;74094;-39
2023/05/17 08:59:32;;;;;;;4.50;2.60;;;;;;;22.14;38.87;99628.48;107326;1257;69992;-39
2023/05/17 09:01:59;;;;;;;4.60;2.80;;;;;;;22.24;39.25;99627.77;107014;1258;72058;-39
2023/05/17 09:04:28;;;;;;;4.70;2.70;;;;;;;22.34;38.20;99625.54;106988;1257;62686;-40
2023/05/17 09:06:55;;;;;;;3.40;2.40;;;;;;;22.40;38.99;99624.52;107252;1261;62341;-39
2023/05/17 09:09:22;;;;;;;6.90;2.70;;;;;;;22.48;38.36;99626.54;107146;1257;75541;-39
2023/05/17 09:11:50;;;;;;;5.30;2.70;;;;;;;22.53;37.44;99630.04;107157;1256;69327;-39
2023/05/17 09:14:17;;;;;;;5.20;3.00;;;;;;;22.55;36.97;99628.40;107260;1261;74897;-39
2023/05/17 09:16:44;;;;;;;6.50;3.10;;;;;;;22.55;37.31;99626.04;107166;1257;61343;-39
2023/05/17 09:19:15;;;;;;;5.20;2.90;;;;;;;22.58;37.78;99633.80;107222;1257;61651;-39
2023/05/17 09:21:47;;;;;;;8.90;3.10;;;;;;;22.60;38.06;99629.70;107207;1256;73994;-39
2023/05/17 09:24:17;;;;;;;6.00;2.70;;;;;;;22.59;37.52;99629.56;107233;1263;69072;-39
2023/05/17 09:26:44;;;;;;;7.90;3.00;;;;;;;22.58;37.84;99628.10;107321;1258;62117;-39
2023/05/17 09:29:15;;;;;;;3.80;2.70;;;;;;;22.57;37.67;99627.23;107200;1261;62099;-39
2023/05/17 09:31:43;;;;;;;5.60;2.70;;;;;;;22.58;37.41;99633.46;107209;1260;62620;-39
2023/05/17 09:34:10;;;;;;;6.10;3.00;;;;;;;22.57;37.11;99631.77;107226;1257;76239;-39
2023/05/17 09:36:41;;;;;;;6.10;2.80;;;;;;;22.55;37.80;99628.65;107156;1261;69911;-39
2023/05/17 09:39:13;;;;;;;7.60;2.40;;;;;;;22.56;37.46;99632.50;107234;1257;72775;-39
2023/05/17 09:41:41;;;;;;;8.50;2.50;;;;;;;22.54;36.14;99629.23;107278;1257;60261;-39
2023/05/17 09:44:09;;;;;;;6.70;2.40;;;;;;;22.51;36.08;99634.14;107297;1257;62290;-39
2023/05/17 09:46:37;;;;;;;6.70;2.60;;;;;;;22.46;35.62;99627.70;107320;1261;72922;-40
2023/05/17 09:49:06;;;;;;;3.60;2.60;;;;;;;22.40;36.01;99633.94;107260;1263;68538;-39
2023/05/17 09:51:39;;;;;;;4.80;2.70;;;;;;;22.36;36.09;99632.20;107235;1258;73014;-40
2023/05/17 09:54:07;;;;;;;3.70;2.60;;;;;;;22.34;36.48;99637.94;107223;1257;61036;-40
2023/05/17 09:56:34;;;;;;;2.40;2.20;;;;;;;22.32;36.45;99633.56;107286;1263;61880;-39
2023/05/17 09:59:02;;;;;;;6.40;2.80;;;;;;;22.31;37.31;99628.07;107259;1256;74652;-40
2023/05/17 10:01:30;;;;;;;5.60;2.70;;;;;;;22.31;37.08;99629.96;107243;1260;70076;-40
2023/05/17 10:04:01;;;;;;;4.70;3.10;;;;;;;22.29;37.48;99632.23;107239;1260;75008;-39
2023/05/17 10:06:29;;;;;;;4.70;2.70;;;;;;;22.26;37.47;99633.10;107229;1258;62646;-39
2023/05/17 10:09:12;;;;;;;4.00;2.80;;;;;;;22.23;37.86;99631.11;107213;1258;61974;-39
2023/05/17 10:11:42;;;;;;;5.60;2.80;;;;;;;22.23;38.39;99634.27;107269;1257;74081;-40
2023/05/17 10:14:10;;;;;;;;;;;;;;;22.27;37.79;99633.61;107246;1257;69938;-39
2023/05/17 10:16:38;;;;;;;7.40;2.70;;;;;;;22.26;36.92;99638.14;107217;1263;74137;-39
2023/05/17 10:19:05;;;;;;;3.70;2.40;;;;;;;22.22;36.72;99637.36;107256;1257;59742;-39
2023/05/17 10:21:33;;;;;;;9.70;2.80;;;;;;;22.24;36.19;99642.14;107085;1257;62101;-39
2023/05/17 10:24:01;;;;;;;4.40;2.80;;;;;;;22.27;36.82;99636.78;107061;1257;75919;-39
2023/05/17 10:26:28;;;;;;;6.10;2.60;;;;;;;22.31;37.39;99637.21;107164;1257;68897;-39
2023/05/17 10:28:59;;;;;;;3.70;2.60;;;;;;;22.36;36.28;99639.85;107044;1261;74748;-39
2023/05/17 10:31:28;;;;;;;4.90;2.20;;;;;;;22.38;36.06;99638.46;107199;1258;60667;-39
2023/05/17 10:33:56;;;;;;;5.40;2.50;;;;;;;22.38;35.65;99633.65;107165;1258;61658;-39
2023/05/17 10:36:23;;;;;;;6.00;2.50;;;;;;;22.38;35.97;99632.78;107149;1258;76116;-39
2023/05/17 10:38:51;;;;;;;5.90;2.40;;;;;;;22.39;35.68;99637.90;107254;1259;70247;-39
2023/05/17 10:41:20;;;;;;;5.50;2.40;;;;;;;22.38;35.64;99634.60;107186;1260;72994;-39
2023/05/17 10:43:47;;;;;;;3.90;2.30;;;;;;;22.37;35.64;99638.73;107269;1258;62734;-39
2023/05/17 10:46:15;;;;;;;4.40;2.50;;;;;;;22.35;35.86;99639.27;107219;1263;61487;-39
2023/05/17 10:48:43;;;;;;;4.40;2.50;;;;;;;22.34;36.19;99637.39;107273;1257;75637;-39
2023/05/17 10:51:10;;;;;;;3.70;2.40;;;;;;;22.34;36.00;99635.81;107355;1260;70284;-39
2023/05/17 10:54:10;;;;;;;3.50;2.50;;;;;;;22.34;36.39;99631.09;107310;1257;73165;-39
2023/05/17 10:56:51;;;;;;;4.80;2.30;;;;;;;22.37;36.53;99632.82;107237;1257;61426;-39
2023/05/17 10:59:20;;;;;;;9.90;3.00;;;;;;;22.36;36.62;99631.65;107227;1263;62466;-39
2023/05/17 11:01:49;;;;;;;5.60;2.50;;;;;;;22.36;35.99;99637.42;107224;1257;73713;-39
2023/05/17 11:04:32;;;;;;;6.00;2.60;;;;;;;22.35;36.15;99635.25;107244;1257;69125;-39
2023/05/17 11:07:22;;;;;;;3.90;2.30;;;;;;;22.35;36.23;99639.19;107098;1260;75085;-40
2023/05/17 11:10:02;;;;;;;7.10;2.50;;;;;;;22.37;36.34;99635.97;107154;1263;61426;-39
2023/05/17 11:12:48;;;;;;;7.50;2.30;;;;;;;22.40;35.75;99631.25;107245;1262;61160;-39
2023/05/17 11:15:16;;;;;;;5.90;2.40;;;;;;;22.41;35.87;99630.58;107199;1258;75634;-39
2023/05/17 11:17:43;;;;;;;9.10;2.50;;;;;;;22.43;35.41;99630.15;107216;1263;70125;-39
2023/05/17 11:20:13;;;;;;;4.80;2.20;;;;;;;22.44;35.61;99633.59;107316;1258;74614;-39
2023/05/17 11:22:49;;;;;;;5.50;2.40;;;;;;;22.47;35.45;99635.48;107229;1263;61265;-39
2023/05/17 11:25:17;;;;;;;4.80;2.40;;;;;;;22.51;35.16;99635.38;107268;1262;62465;-39
2023/05/17 11:27:46;;;;;;;3.50;2.10;;;;;;;22.54;35.32;99634.52;107058;1263;72767;-39
2023/05/17 11:30:30;;;;;;;6.10;2.40;;;;;;;22.55;35.62;99633.46;107263;1263;69142;-39
2023/05/17 11:33:05;;;;;;;3.30;2.40;;;;;;;22.57;35.98;99629.15;107216;1262;74846;-39
2023/05/17 11:35:46;;;;;;;4.10;2.30;;;;;;;22.64;35.19;99630.55;107252;1257;62696;-39